sensor_id;sensor_type;location;lat;lon;timestamp;P1;P2;P0
77070;PMS7003;65997;48.410;-4.570;2022-12-18T00:01:36;19.50;15.00;10.25
77070;PMS7003;65997;48.410;-4.570;2022-12-18T00:04:04;16.00;15.25;10.75
77070;PMS7003;65997;48.410;-4.570;2022-12-18T00:13:30;19.25;18.75;11.00
77070;PMS7003;65997;48.410;-4.570;2022-12-18T00:16:00;15.00;14.25;10.25
77070;PMS7003;65997;48.410;-4.570;2022-12-18T00:18:31;16.75;13.75;10.00
77070;PMS7003;65997;48.410;-4.570;2022-12-18T00:21:01;16.75;11.50;10.00
77070;PMS7003;65997;48.410;-4.570;2022-12-18T00:23:30;20.75;18.00;12.00
77070;PMS7003;65997;48.410;-4.570;2022-12-18T00:26:04;16.25;13.75;10.00
77070;PMS7003;65997;48.410;-4.570;2022-12-18T00:28:32;23.00;15.75;11.75
77070;PMS7003;65997;48.410;-4.570;2022-12-18T00:31:06;14.00;11.75;10.00
77070;PMS7003;65997;48.410;-4.570;2022-12-18T00:33:34;17.25;13.75;11.00
77070;PMS7003;65997;48.410;-4.570;2022-12-18T00:36:01;18.00;14.00;11.00
77070;PMS7003;65997;48.410;-4.570;2022-12-18T00:38:28;18.75;14.00;10.25
77070;PMS7003;65997;48.410;-4.570;2022-12-18T00:40:53;21.75;19.75;11.75
77070;PMS7003;65997;48.410;-4.570;2022-12-18T00:43:19;23.50;16.00;11.00
77070;PMS7003;65997;48.410;-4.570;2022-12-18T00:45:48;16.75;14.50;10.25
77070;PMS7003;65997;48.410;-4.570;2022-12-18T00:48:16;17.25;13.25;9.75
77070;PMS7003;65997;48.410;-4.570;2022-12-18T00:50:43;15.75;12.00;8.75
77070;PMS7003;65997;48.410;-4.570;2022-12-18T00:53:08;16.75;12.00;10.00
77070;PMS7003;65997;48.410;-4.570;2022-12-18T00:55:34;17.50;12.75;8.50
77070;PMS7003;65997;48.410;-4.570;2022-12-18T00:58:00;19.25;14.50;11.00
77070;PMS7003;65997;48.410;-4.570;2022-12-18T01:00:26;18.25;15.00;11.00
77070;PMS7003;65997;48.410;-4.570;2022-12-18T01:02:51;12.75;11.50;9.00
77070;PMS7003;65997;48.410;-4.570;2022-12-18T01:05:17;20.00;15.75;10.75
77070;PMS7003;65997;48.410;-4.570;2022-12-18T01:07:48;16.75;13.00;10.50
77070;PMS7003;65997;48.410;-4.570;2022-12-18T01:10:14;14.25;13.00;7.75
77070;PMS7003;65997;48.410;-4.570;2022-12-18T01:12:40;14.75;12.25;7.00
77070;PMS7003;65997;48.410;-4.570;2022-12-18T01:15:06;25.75;19.75;11.75
77070;PMS7003;65997;48.410;-4.570;2022-12-18T01:17:33;16.25;14.00;11.25
77070;PMS7003;65997;48.410;-4.570;2022-12-18T01:19:59;14.75;11.50;9.00
77070;PMS7003;65997;48.410;-4.570;2022-12-18T01:22:25;20.25;14.75;10.50
77070;PMS7003;65997;48.410;-4.570;2022-12-18T01:24:50;18.50;14.50;10.00
77070;PMS7003;65997;48.410;-4.570;2022-12-18T01:27:16;20.00;17.25;11.00
77070;PMS7003;65997;48.410;-4.570;2022-12-18T01:29:42;20.50;15.75;10.00
77070;PMS7003;65997;48.410;-4.570;2022-12-18T01:32:07;20.00;16.00;11.00
77070;PMS7003;65997;48.410;-4.570;2022-12-18T01:34:35;20.75;16.00;11.00
77070;PMS7003;65997;48.410;-4.570;2022-12-18T01:37:02;19.00;15.00;10.00
77070;PMS7003;65997;48.410;-4.570;2022-12-18T01:39:29;20.00;15.75;10.00
77070;PMS7003;65997;48.410;-4.570;2022-12-18T01:41:57;18.25;14.25;10.00
77070;PMS7003;65997;48.410;-4.570;2022-12-18T01:50:21;14.75;12.75;10.25
77070;PMS7003;65997;48.410;-4.570;2022-12-18T01:53:06;17.00;14.25;10.00
77070;PMS7003;65997;48.410;-4.570;2022-12-18T01:55:56;25.00;15.75;11.75
77070;PMS7003;65997;48.410;-4.570;2022-12-18T01:58:28;18.25;15.25;10.00
77070;PMS7003;65997;48.410;-4.570;2022-12-18T02:01:16;19.75;14.75;10.00
77070;PMS7003;65997;48.410;-4.570;2022-12-18T02:03:42;22.00;17.50;12.75
77070;PMS7003;65997;48.410;-4.570;2022-12-18T02:09:02;20.75;15.00;12.00
77070;PMS7003;65997;48.410;-4.570;2022-12-18T02:11:49;22.50;18.25;12.00
77070;PMS7003;65997;48.410;-4.570;2022-12-18T02:14:44;20.75;17.25;11.50
77070;PMS7003;65997;48.410;-4.570;2022-12-18T02:17:36;19.75;16.75;11.00
77070;PMS7003;65997;48.410;-4.570;2022-12-18T02:20:20;24.25;18.00;10.25
77070;PMS7003;65997;48.410;-4.570;2022-12-18T02:26:04;19.50;14.50;11.75
77070;PMS7003;65997;48.410;-4.570;2022-12-18T02:35:46;23.75;18.00;11.75
77070;PMS7003;65997;48.410;-4.570;2022-12-18T02:38:14;21.50;15.50;11.50
77070;PMS7003;65997;48.410;-4.570;2022-12-18T02:40:44;20.75;15.25;11.50
77070;PMS7003;65997;48.410;-4.570;2022-12-18T02:43:13;19.25;17.75;12.00
77070;PMS7003;65997;48.410;-4.570;2022-12-18T02:48:46;16.25;15.75;12.00
77070;PMS7003;65997;48.410;-4.570;2022-12-18T02:54:08;17.50;14.75;11.00
77070;PMS7003;65997;48.410;-4.570;2022-12-18T02:56:49;23.75;19.25;13.00
77070;PMS7003;65997;48.410;-4.570;2022-12-18T02:59:25;19.00;16.00;11.50
77070;PMS7003;65997;48.410;-4.570;2022-12-18T03:02:14;12.50;11.25;9.50
77070;PMS7003;65997;48.410;-4.570;2022-12-18T03:05:07;21.50;16.25;11.75
77070;PMS7003;65997;48.410;-4.570;2022-12-18T03:07:42;22.75;18.00;12.00
77070;PMS7003;65997;48.410;-4.570;2022-12-18T03:10:23;22.00;19.75;12.00
77070;PMS7003;65997;48.410;-4.570;2022-12-18T03:13:04;18.25;15.25;11.25
77070;PMS7003;65997;48.410;-4.570;2022-12-18T03:15:47;22.00;17.75;12.00
77070;PMS7003;65997;48.410;-4.570;2022-12-18T03:18:25;19.25;15.50;11.00
77070;PMS7003;65997;48.410;-4.570;2022-12-18T03:21:06;18.00;14.75;10.75
77070;PMS7003;65997;48.410;-4.570;2022-12-18T03:23:47;22.25;16.75;10.75
77070;PMS7003;65997;48.410;-4.570;2022-12-18T03:26:17;23.75;16.25;11.00
77070;PMS7003;65997;48.410;-4.570;2022-12-18T03:28:55;20.75;17.50;13.25
77070;PMS7003;65997;48.410;-4.570;2022-12-18T03:31:24;24.00;16.00;12.50
77070;PMS7003;65997;48.410;-4.570;2022-12-18T03:33:55;15.75;8.00;6.75
77070;PMS7003;65997;48.410;-4.570;2022-12-18T03:36:24;18.75;15.50;11.50
77070;PMS7003;65997;48.410;-4.570;2022-12-18T03:38:50;27.75;18.50;14.25
77070;PMS7003;65997;48.410;-4.570;2022-12-18T03:41:23;21.75;15.75;10.00
77070;PMS7003;65997;48.410;-4.570;2022-12-18T03:55:47;17.75;12.25;11.50
77070;PMS7003;65997;48.410;-4.570;2022-12-18T03:58:15;19.75;15.25;12.00
77070;PMS7003;65997;48.410;-4.570;2022-12-18T04:00:45;23.00;17.25;13.50
77070;PMS7003;65997;48.410;-4.570;2022-12-18T04:03:13;24.25;17.00;14.00
77070;PMS7003;65997;48.410;-4.570;2022-12-18T04:05:40;21.50;17.75;12.00
77070;PMS7003;65997;48.410;-4.570;2022-12-18T04:08:09;19.00;17.00;11.25
77070;PMS7003;65997;48.410;-4.570;2022-12-18T04:10:35;22.75;21.00;12.00
77070;PMS7003;65997;48.410;-4.570;2022-12-18T04:13:02;20.75;16.50;13.00
77070;PMS7003;65997;48.410;-4.570;2022-12-18T04:15:28;20.25;15.75;12.50
77070;PMS7003;65997;48.410;-4.570;2022-12-18T04:17:53;21.00;16.00;12.00
77070;PMS7003;65997;48.410;-4.570;2022-12-18T04:20:19;21.50;17.50;12.00
77070;PMS7003;65997;48.410;-4.570;2022-12-18T04:22:45;16.25;16.25;10.00
77070;PMS7003;65997;48.410;-4.570;2022-12-18T04:25:10;20.75;17.50;12.00
77070;PMS7003;65997;48.410;-4.570;2022-12-18T04:27:36;20.25;15.00;12.00
77070;PMS7003;65997;48.410;-4.570;2022-12-18T04:30:02;17.00;17.00;13.50
77070;PMS7003;65997;48.410;-4.570;2022-12-18T04:32:28;18.25;16.00;11.75
77070;PMS7003;65997;48.410;-4.570;2022-12-18T04:34:54;17.50;17.50;12.00
77070;PMS7003;65997;48.410;-4.570;2022-12-18T04:37:20;19.50;16.25;11.75
77070;PMS7003;65997;48.410;-4.570;2022-12-18T04:39:45;17.50;14.25;12.25
77070;PMS7003;65997;48.410;-4.570;2022-12-18T04:42:11;18.00;16.50;11.00
77070;PMS7003;65997;48.410;-4.570;2022-12-18T04:44:37;20.50;16.75;12.25
77070;PMS7003;65997;48.410;-4.570;2022-12-18T04:47:02;26.75;18.00;14.50
77070;PMS7003;65997;48.410;-4.570;2022-12-18T04:49:28;21.25;14.00;11.50
77070;PMS7003;65997;48.410;-4.570;2022-12-18T04:51:54;16.75;16.75;11.00
77070;PMS7003;65997;48.410;-4.570;2022-12-18T04:54:20;19.00;17.25;13.75
77070;PMS7003;65997;48.410;-4.570;2022-12-18T04:56:46;29.00;18.75;13.00
77070;PMS7003;65997;48.410;-4.570;2022-12-18T04:59:12;20.50;17.50;12.50
77070;PMS7003;65997;48.410;-4.570;2022-12-18T05:01:38;23.25;16.25;11.25
77070;PMS7003;65997;48.410;-4.570;2022-12-18T05:04:03;22.50;16.75;12.25
77070;PMS7003;65997;48.410;-4.570;2022-12-18T05:06:29;25.00;17.50;11.25
77070;PMS7003;65997;48.410;-4.570;2022-12-18T05:08:55;22.50;17.50;12.50
77070;PMS7003;65997;48.410;-4.570;2022-12-18T05:11:24;24.75;21.00;13.75
77070;PMS7003;65997;48.410;-4.570;2022-12-18T05:13:50;19.75;17.50;12.00
77070;PMS7003;65997;48.410;-4.570;2022-12-18T05:16:16;21.00;21.00;12.00
77070;PMS7003;65997;48.410;-4.570;2022-12-18T05:18:41;23.50;18.50;13.00
77070;PMS7003;65997;48.410;-4.570;2022-12-18T05:21:07;23.25;18.50;12.00
77070;PMS7003;65997;48.410;-4.570;2022-12-18T05:23:33;21.50;19.25;13.00
77070;PMS7003;65997;48.410;-4.570;2022-12-18T05:25:59;19.75;15.75;11.50
77070;PMS7003;65997;48.410;-4.570;2022-12-18T05:28:28;18.25;14.00;8.75
77070;PMS7003;65997;48.410;-4.570;2022-12-18T05:30:56;23.75;19.75;14.00
77070;PMS7003;65997;48.410;-4.570;2022-12-18T05:33:24;24.50;20.25;12.00
77070;PMS7003;65997;48.410;-4.570;2022-12-18T05:35:55;24.75;18.00;12.00
77070;PMS7003;65997;48.410;-4.570;2022-12-18T05:38:24;16.00;14.00;11.50
77070;PMS7003;65997;48.410;-4.570;2022-12-18T05:40:51;21.00;16.00;11.00
77070;PMS7003;65997;48.410;-4.570;2022-12-18T05:43:18;15.25;13.25;10.75
77070;PMS7003;65997;48.410;-4.570;2022-12-18T05:45:45;20.25;18.00;13.25
77070;PMS7003;65997;48.410;-4.570;2022-12-18T05:48:11;24.50;19.75;12.75
77070;PMS7003;65997;48.410;-4.570;2022-12-18T05:50:44;23.50;22.00;13.75
77070;PMS7003;65997;48.410;-4.570;2022-12-18T05:54:11;15.00;12.75;10.75
77070;PMS7003;65997;48.410;-4.570;2022-12-18T05:56:37;17.75;17.75;13.00
77070;PMS7003;65997;48.410;-4.570;2022-12-18T05:59:04;25.50;18.00;12.75
77070;PMS7003;65997;48.410;-4.570;2022-12-18T06:01:30;29.25;18.75;12.75
77070;PMS7003;65997;48.410;-4.570;2022-12-18T06:03:55;23.50;18.50;13.00
77070;PMS7003;65997;48.410;-4.570;2022-12-18T06:06:23;17.25;13.25;8.50
77070;PMS7003;65997;48.410;-4.570;2022-12-18T06:08:50;21.25;14.75;12.00
77070;PMS7003;65997;48.410;-4.570;2022-12-18T06:11:18;23.75;20.00;13.00
77070;PMS7003;65997;48.410;-4.570;2022-12-18T06:13:46;25.25;17.00;11.25
77070;PMS7003;65997;48.410;-4.570;2022-12-18T06:16:14;17.50;15.75;12.00
77070;PMS7003;65997;48.410;-4.570;2022-12-18T06:18:40;17.50;16.00;13.00
77070;PMS7003;65997;48.410;-4.570;2022-12-18T06:21:06;20.50;18.50;12.00
77070;PMS7003;65997;48.410;-4.570;2022-12-18T06:23:35;23.50;17.50;11.75
77070;PMS7003;65997;48.410;-4.570;2022-12-18T06:26:04;20.00;16.25;11.75
77070;PMS7003;65997;48.410;-4.570;2022-12-18T06:28:34;15.50;14.00;10.75
77070;PMS7003;65997;48.410;-4.570;2022-12-18T06:31:02;20.50;16.75;11.25
77070;PMS7003;65997;48.410;-4.570;2022-12-18T06:33:29;16.75;15.00;11.75
77070;PMS7003;65997;48.410;-4.570;2022-12-18T06:36:13;16.75;16.00;11.25
77070;PMS7003;65997;48.410;-4.570;2022-12-18T06:38:42;19.50;16.50;10.75
77070;PMS7003;65997;48.410;-4.570;2022-12-18T06:41:10;14.25;14.25;9.00
77070;PMS7003;65997;48.410;-4.570;2022-12-18T06:43:38;16.50;14.25;12.50
77070;PMS7003;65997;48.410;-4.570;2022-12-18T06:46:04;18.25;14.75;10.00
77070;PMS7003;65997;48.410;-4.570;2022-12-18T06:48:30;19.25;15.00;9.75
77070;PMS7003;65997;48.410;-4.570;2022-12-18T06:50:57;21.50;16.25;11.75
77070;PMS7003;65997;48.410;-4.570;2022-12-18T06:53:22;15.00;14.00;10.00
77070;PMS7003;65997;48.410;-4.570;2022-12-18T06:55:48;18.00;15.50;11.25
77070;PMS7003;65997;48.410;-4.570;2022-12-18T06:58:14;18.25;13.25;9.75
77070;PMS7003;65997;48.410;-4.570;2022-12-18T07:00:40;11.50;10.75;9.00
77070;PMS7003;65997;48.410;-4.570;2022-12-18T07:03:06;16.25;14.25;10.00
77070;PMS7003;65997;48.410;-4.570;2022-12-18T07:05:31;14.50;13.25;9.00
77070;PMS7003;65997;48.410;-4.570;2022-12-18T07:07:57;15.75;13.25;10.00
77070;PMS7003;65997;48.410;-4.570;2022-12-18T07:10:23;17.25;12.25;9.00
77070;PMS7003;65997;48.410;-4.570;2022-12-18T07:12:49;12.75;9.75;7.50
77070;PMS7003;65997;48.410;-4.570;2022-12-18T07:15:15;13.00;11.00;8.50
77070;PMS7003;65997;48.410;-4.570;2022-12-18T07:17:41;18.75;12.75;8.50
77070;PMS7003;65997;48.410;-4.570;2022-12-18T07:20:07;15.50;11.75;9.00
77070;PMS7003;65997;48.410;-4.570;2022-12-18T07:22:33;16.25;13.00;9.50
77070;PMS7003;65997;48.410;-4.570;2022-12-18T07:24:59;18.50;11.75;9.00
77070;PMS7003;65997;48.410;-4.570;2022-12-18T07:27:25;15.00;13.75;9.00
77070;PMS7003;65997;48.410;-4.570;2022-12-18T07:29:50;9.50;9.00;8.00
77070;PMS7003;65997;48.410;-4.570;2022-12-18T07:32:16;14.50;9.75;7.25
77070;PMS7003;65997;48.410;-4.570;2022-12-18T07:34:42;10.50;10.50;8.00
77070;PMS7003;65997;48.410;-4.570;2022-12-18T07:37:07;10.00;10.00;7.75
77070;PMS7003;65997;48.410;-4.570;2022-12-18T07:39:33;13.50;11.00;9.00
77070;PMS7003;65997;48.410;-4.570;2022-12-18T07:41:59;9.25;9.25;7.75
77070;PMS7003;65997;48.410;-4.570;2022-12-18T07:44:45;10.00;9.00;7.00
77070;PMS7003;65997;48.410;-4.570;2022-12-18T07:47:11;10.25;9.50;7.75
77070;PMS7003;65997;48.410;-4.570;2022-12-18T07:49:37;12.50;9.00;7.25
77070;PMS7003;65997;48.410;-4.570;2022-12-18T07:52:22;9.50;9.50;7.00
77070;PMS7003;65997;48.410;-4.570;2022-12-18T07:54:48;10.25;8.25;7.75
77070;PMS7003;65997;48.410;-4.570;2022-12-18T07:57:16;11.75;10.75;8.00
77070;PMS7003;65997;48.410;-4.570;2022-12-18T07:59:42;8.75;8.00;6.75
77070;PMS7003;65997;48.410;-4.570;2022-12-18T08:02:08;12.50;9.00;6.50
77070;PMS7003;65997;48.410;-4.570;2022-12-18T08:04:34;9.25;8.75;5.25
77070;PMS7003;65997;48.410;-4.570;2022-12-18T08:07:00;11.75;8.00;6.00
77070;PMS7003;65997;48.410;-4.570;2022-12-18T08:09:26;7.00;7.00;5.25
77070;PMS7003;65997;48.410;-4.570;2022-12-18T08:11:51;10.25;8.00;6.50
77070;PMS7003;65997;48.410;-4.570;2022-12-18T08:14:17;10.00;8.00;5.25
77070;PMS7003;65997;48.410;-4.570;2022-12-18T08:16:43;5.50;5.25;5.00
77070;PMS7003;65997;48.410;-4.570;2022-12-18T08:19:08;9.00;8.00;5.00
77070;PMS7003;65997;48.410;-4.570;2022-12-18T08:21:36;9.25;8.00;5.00
77070;PMS7003;65997;48.410;-4.570;2022-12-18T08:24:02;5.50;5.50;4.50
77070;PMS7003;65997;48.410;-4.570;2022-12-18T08:26:29;7.25;7.00;4.25
77070;PMS7003;65997;48.410;-4.570;2022-12-18T08:28:56;9.00;6.50;4.00
77070;PMS7003;65997;48.410;-4.570;2022-12-18T08:31:25;8.50;7.00;5.50
77070;PMS7003;65997;48.410;-4.570;2022-12-18T08:33:52;6.75;3.25;3.00
77070;PMS7003;65997;48.410;-4.570;2022-12-18T08:36:21;7.75;7.00;4.00
77070;PMS7003;65997;48.410;-4.570;2022-12-18T08:38:48;10.50;5.50;5.00
77070;PMS7003;65997;48.410;-4.570;2022-12-18T08:41:15;7.00;5.00;4.00
77070;PMS7003;65997;48.410;-4.570;2022-12-18T08:43:42;6.25;5.00;4.00
77070;PMS7003;65997;48.410;-4.570;2022-12-18T08:46:31;4.25;4.00;3.00
77070;PMS7003;65997;48.410;-4.570;2022-12-18T08:48:59;7.50;4.75;3.75
77070;PMS7003;65997;48.410;-4.570;2022-12-18T08:51:25;4.00;4.00;3.00
77070;PMS7003;65997;48.410;-4.570;2022-12-18T08:53:53;4.00;4.00;3.25
77070;PMS7003;65997;48.410;-4.570;2022-12-18T09:02:30;4.00;4.00;3.25
77070;PMS7003;65997;48.410;-4.570;2022-12-18T09:04:56;6.25;5.00;4.00
77070;PMS7003;65997;48.410;-4.570;2022-12-18T09:07:21;3.00;3.00;3.00
77070;PMS7003;65997;48.410;-4.570;2022-12-18T09:09:47;4.25;4.25;3.75
77070;PMS7003;65997;48.410;-4.570;2022-12-18T09:12:13;3.00;3.00;2.50
77070;PMS7003;65997;48.410;-4.570;2022-12-18T09:14:41;3.00;2.50;2.50
77070;PMS7003;65997;48.410;-4.570;2022-12-18T09:17:14;5.00;4.00;3.00
77070;PMS7003;65997;48.410;-4.570;2022-12-18T09:23:20;3.50;2.50;2.00
77070;PMS7003;65997;48.410;-4.570;2022-12-18T09:25:46;2.00;2.00;2.00
77070;PMS7003;65997;48.410;-4.570;2022-12-18T09:30:58;4.25;3.75;3.00
77070;PMS7003;65997;48.410;-4.570;2022-12-18T09:33:28;5.50;3.00;2.00
77070;PMS7003;65997;48.410;-4.570;2022-12-18T09:35:54;3.25;3.00;3.00
77070;PMS7003;65997;48.410;-4.570;2022-12-18T09:38:20;4.50;3.00;2.00
77070;PMS7003;65997;48.410;-4.570;2022-12-18T09:40:52;4.00;2.75;2.25
77070;PMS7003;65997;48.410;-4.570;2022-12-18T09:43:41;3.50;2.50;1.75
77070;PMS7003;65997;48.410;-4.570;2022-12-18T09:46:16;2.00;2.00;1.50
77070;PMS7003;65997;48.410;-4.570;2022-12-18T09:48:51;2.50;2.25;1.50
77070;PMS7003;65997;48.410;-4.570;2022-12-18T09:51:25;2.00;1.75;1.50
77070;PMS7003;65997;48.410;-4.570;2022-12-18T09:54:01;5.75;2.00;2.00
77070;PMS7003;65997;48.410;-4.570;2022-12-18T09:56:36;4.25;2.00;2.00
77070;PMS7003;65997;48.410;-4.570;2022-12-18T09:59:18;4.75;2.25;2.00
77070;PMS7003;65997;48.410;-4.570;2022-12-18T10:30:34;3.75;3.50;2.75
77070;PMS7003;65997;48.410;-4.570;2022-12-18T10:36:51;2.75;2.00;1.00
77070;PMS7003;65997;48.410;-4.570;2022-12-18T10:56:39;4.00;2.75;2.00
77070;PMS7003;65997;48.410;-4.570;2022-12-18T11:13:18;5.00;4.00;3.25
77070;PMS7003;65997;48.410;-4.570;2022-12-18T11:47:03;5.00;4.00;2.50
77070;PMS7003;65997;48.410;-4.570;2022-12-18T12:13:41;11.50;6.50;3.00
77070;PMS7003;65997;48.410;-4.570;2022-12-18T12:20:39;9.75;4.75;3.75
77070;PMS7003;65997;48.410;-4.570;2022-12-18T12:33:59;9.75;4.25;3.00
77070;PMS7003;65997;48.410;-4.570;2022-12-18T12:40:19;8.00;5.25;3.00
77070;PMS7003;65997;48.410;-4.570;2022-12-18T12:42:56;4.25;2.25;2.00
77070;PMS7003;65997;48.410;-4.570;2022-12-18T12:45:57;4.00;2.50;2.00
77070;PMS7003;65997;48.410;-4.570;2022-12-18T12:48:55;3.00;2.00;2.00
77070;PMS7003;65997;48.410;-4.570;2022-12-18T12:51:57;5.50;4.00;3.00
77070;PMS7003;65997;48.410;-4.570;2022-12-18T12:54:56;4.00;2.25;2.00
77070;PMS7003;65997;48.410;-4.570;2022-12-18T13:00:39;8.00;4.50;2.75
77070;PMS7003;65997;48.410;-4.570;2022-12-18T13:06:18;6.00;3.00;2.00
77070;PMS7003;65997;48.410;-4.570;2022-12-18T13:09:02;3.00;3.00;2.00
77070;PMS7003;65997;48.410;-4.570;2022-12-18T13:23:26;6.00;3.00;3.00
77070;PMS7003;65997;48.410;-4.570;2022-12-18T13:28:50;3.00;3.00;2.25
77070;PMS7003;65997;48.410;-4.570;2022-12-18T13:34:25;3.00;2.00;1.75
77070;PMS7003;65997;48.410;-4.570;2022-12-18T13:36:55;4.50;3.00;2.00
77070;PMS7003;65997;48.410;-4.570;2022-12-18T13:39:41;4.50;3.25;3.00
77070;PMS7003;65997;48.410;-4.570;2022-12-18T13:48:21;3.50;3.00;2.50
77070;PMS7003;65997;48.410;-4.570;2022-12-18T13:50:49;6.50;4.50;3.25
77070;PMS7003;65997;48.410;-4.570;2022-12-18T13:53:46;4.75;2.25;2.00
77070;PMS7003;65997;48.410;-4.570;2022-12-18T13:56:26;4.50;3.50;2.00
77070;PMS7003;65997;48.410;-4.570;2022-12-18T14:01:44;4.50;2.75;2.00
77070;PMS7003;65997;48.410;-4.570;2022-12-18T14:04:21;2.75;2.50;2.00
77070;PMS7003;65997;48.410;-4.570;2022-12-18T14:06:57;4.00;2.50;1.25
77070;PMS7003;65997;48.410;-4.570;2022-12-18T14:09:28;1.75;1.75;1.75
77070;PMS7003;65997;48.410;-4.570;2022-12-18T14:11:56;3.00;1.00;1.00
77070;PMS7003;65997;48.410;-4.570;2022-12-18T14:14:35;5.00;1.75;1.25
77070;PMS7003;65997;48.410;-4.570;2022-12-18T14:17:01;2.00;2.00;2.00
77070;PMS7003;65997;48.410;-4.570;2022-12-18T14:19:27;2.00;2.00;2.00
77070;PMS7003;65997;48.410;-4.570;2022-12-18T14:21:53;2.75;2.75;2.00
77070;PMS7003;65997;48.410;-4.570;2022-12-18T14:24:21;4.00;2.75;2.00
77070;PMS7003;65997;48.410;-4.570;2022-12-18T14:26:50;6.00;1.75;1.50
77070;PMS7003;65997;48.410;-4.570;2022-12-18T14:29:26;5.00;2.00;1.75
77070;PMS7003;65997;48.410;-4.570;2022-12-18T14:34:36;4.00;1.50;1.00
77070;PMS7003;65997;48.410;-4.570;2022-12-18T14:37:01;2.75;2.75;1.00
77070;PMS7003;65997;48.410;-4.570;2022-12-18T14:39:27;3.75;2.00;2.00
77070;PMS7003;65997;48.410;-4.570;2022-12-18T14:41:53;2.00;2.00;1.50
77070;PMS7003;65997;48.410;-4.570;2022-12-18T14:44:19;4.50;3.00;2.00
77070;PMS7003;65997;48.410;-4.570;2022-12-18T14:46:46;4.50;3.00;2.00
77070;PMS7003;65997;48.410;-4.570;2022-12-18T14:52:02;3.00;3.00;2.00
77070;PMS7003;65997;48.410;-4.570;2022-12-18T14:57:28;10.00;2.75;2.25
77070;PMS7003;65997;48.410;-4.570;2022-12-18T15:00:05;1.00;0.00;0.00
77070;PMS7003;65997;48.410;-4.570;2022-12-18T15:02:34;5.25;3.00;2.00
77070;PMS7003;65997;48.410;-4.570;2022-12-18T15:05:02;5.75;2.75;2.00
77070;PMS7003;65997;48.410;-4.570;2022-12-18T15:07:43;4.25;2.00;1.50
77070;PMS7003;65997;48.410;-4.570;2022-12-18T15:10:20;4.00;2.50;1.25
77070;PMS7003;65997;48.410;-4.570;2022-12-18T15:13:19;4.00;2.00;2.00
77070;PMS7003;65997;48.410;-4.570;2022-12-18T15:16:00;3.75;2.25;1.00
77070;PMS7003;65997;48.410;-4.570;2022-12-18T15:18:35;6.25;2.75;2.00
77070;PMS7003;65997;48.410;-4.570;2022-12-18T15:21:08;2.25;2.00;1.00
77070;PMS7003;65997;48.410;-4.570;2022-12-18T15:27:00;1.00;1.00;1.00
77070;PMS7003;65997;48.410;-4.570;2022-12-18T15:29:26;2.25;2.25;2.00
77070;PMS7003;65997;48.410;-4.570;2022-12-18T16:56:09;6.50;4.00;3.00
77070;PMS7003;65997;48.410;-4.570;2022-12-18T16:59:03;4.75;3.00;2.00
77070;PMS7003;65997;48.410;-4.570;2022-12-18T17:01:38;4.25;2.75;2.00
77070;PMS7003;65997;48.410;-4.570;2022-12-18T17:04:06;2.00;2.00;2.00
77070;PMS7003;65997;48.410;-4.570;2022-12-18T17:06:32;6.00;3.50;2.50
77070;PMS7003;65997;48.410;-4.570;2022-12-18T17:09:02;6.25;3.25;2.50
77070;PMS7003;65997;48.410;-4.570;2022-12-18T17:11:40;5.25;4.25;2.00
77070;PMS7003;65997;48.410;-4.570;2022-12-18T17:26:47;8.50;4.25;2.00
77070;PMS7003;65997;48.410;-4.570;2022-12-18T17:29:19;8.75;3.75;3.00
77070;PMS7003;65997;48.410;-4.570;2022-12-18T17:31:52;5.50;4.00;3.00
77070;PMS7003;65997;48.410;-4.570;2022-12-18T17:34:36;9.00;3.00;1.50
77070;PMS7003;65997;48.410;-4.570;2022-12-18T17:37:25;7.75;4.25;2.50
77070;PMS7003;65997;48.410;-4.570;2022-12-18T17:39:51;5.25;3.00;3.00
77070;PMS7003;65997;48.410;-4.570;2022-12-18T17:42:29;9.25;5.00;3.75
77070;PMS7003;65997;48.410;-4.570;2022-12-18T17:45:07;7.00;4.00;3.00
77070;PMS7003;65997;48.410;-4.570;2022-12-18T17:48:00;7.50;3.00;2.25
77070;PMS7003;65997;48.410;-4.570;2022-12-18T17:50:46;4.50;2.00;1.75
77070;PMS7003;65997;48.410;-4.570;2022-12-18T17:53:22;5.25;4.00;3.00
77070;PMS7003;65997;48.410;-4.570;2022-12-18T17:55:59;5.50;3.00;3.00
77070;PMS7003;65997;48.410;-4.570;2022-12-18T17:58:54;4.75;3.50;2.00
77070;PMS7003;65997;48.410;-4.570;2022-12-18T18:08:17;7.00;4.00;3.00
77070;PMS7003;65997;48.410;-4.570;2022-12-18T18:10:54;2.25;1.50;1.50
77070;PMS7003;65997;48.410;-4.570;2022-12-18T18:17:11;4.00;3.00;2.00
77070;PMS7003;65997;48.410;-4.570;2022-12-18T18:19:48;4.25;4.25;3.25
77070;PMS7003;65997;48.410;-4.570;2022-12-18T18:22:13;6.00;3.50;2.50
77070;PMS7003;65997;48.410;-4.570;2022-12-18T18:24:39;8.00;4.00;3.00
77070;PMS7003;65997;48.410;-4.570;2022-12-18T18:27:05;5.50;2.00;2.00
77070;PMS7003;65997;48.410;-4.570;2022-12-18T18:29:30;4.25;3.00;1.75
77070;PMS7003;65997;48.410;-4.570;2022-12-18T18:31:56;7.00;4.75;3.00
77070;PMS7003;65997;48.410;-4.570;2022-12-18T18:34:23;5.25;4.00;3.00
77070;PMS7003;65997;48.410;-4.570;2022-12-18T18:36:51;7.25;4.75;3.00
77070;PMS7003;65997;48.410;-4.570;2022-12-18T18:39:16;6.00;4.25;2.00
77070;PMS7003;65997;48.410;-4.570;2022-12-18T18:48:42;4.00;2.00;2.00
77070;PMS7003;65997;48.410;-4.570;2022-12-18T18:54:24;3.75;2.50;1.75
77070;PMS7003;65997;48.410;-4.570;2022-12-18T18:57:15;5.25;4.00;2.00
77070;PMS7003;65997;48.410;-4.570;2022-12-18T18:59:48;5.50;3.00;2.75
77070;PMS7003;65997;48.410;-4.570;2022-12-18T19:05:38;3.25;3.00;3.00
77070;PMS7003;65997;48.410;-4.570;2022-12-18T19:08:04;4.50;2.50;2.25
77070;PMS7003;65997;48.410;-4.570;2022-12-18T19:10:29;7.25;3.00;2.00
77070;PMS7003;65997;48.410;-4.570;2022-12-18T19:19:57;8.00;5.25;3.00
77070;PMS7003;65997;48.410;-4.570;2022-12-18T19:25:28;8.00;3.00;2.00
77070;PMS7003;65997;48.410;-4.570;2022-12-18T19:28:07;5.50;2.25;2.00
77070;PMS7003;65997;48.410;-4.570;2022-12-18T19:30:36;3.25;3.25;2.50
77070;PMS7003;65997;48.410;-4.570;2022-12-18T19:33:03;4.00;2.75;2.00
77070;PMS7003;65997;48.410;-4.570;2022-12-18T19:35:30;6.00;4.00;3.00
77070;PMS7003;65997;48.410;-4.570;2022-12-18T19:44:20;4.00;3.50;3.00
77070;PMS7003;65997;48.410;-4.570;2022-12-18T19:47:08;6.75;3.00;2.00
77070;PMS7003;65997;48.410;-4.570;2022-12-18T19:49:40;3.75;3.00;2.00
77070;PMS7003;65997;48.410;-4.570;2022-12-18T19:52:21;6.00;4.00;2.00
77070;PMS7003;65997;48.410;-4.570;2022-12-18T19:54:50;5.50;5.25;3.00
77070;PMS7003;65997;48.410;-4.570;2022-12-18T19:57:16;4.00;4.00;2.00
77070;PMS7003;65997;48.410;-4.570;2022-12-18T19:59:41;2.75;2.25;2.00
77070;PMS7003;65997;48.410;-4.570;2022-12-18T20:02:10;6.50;2.00;2.00
77070;PMS7003;65997;48.410;-4.570;2022-12-18T20:04:38;5.00;4.00;2.25
77070;PMS7003;65997;48.410;-4.570;2022-12-18T20:07:04;7.00;4.00;2.00
77070;PMS7003;65997;48.410;-4.570;2022-12-18T20:09:30;2.25;2.00;2.00
77070;PMS7003;65997;48.410;-4.570;2022-12-18T20:29:54;4.00;3.00;2.00
77070;PMS7003;65997;48.410;-4.570;2022-12-18T20:32:19;5.25;4.25;3.50
77070;PMS7003;65997;48.410;-4.570;2022-12-18T20:34:45;12.00;3.50;2.00
77070;PMS7003;65997;48.410;-4.570;2022-12-18T20:37:10;6.50;3.50;2.50
77070;PMS7003;65997;48.410;-4.570;2022-12-18T20:39:36;4.75;3.00;3.00
77070;PMS7003;65997;48.410;-4.570;2022-12-18T20:42:02;5.50;4.00;3.00
77070;PMS7003;65997;48.410;-4.570;2022-12-18T20:50:40;5.25;5.00;3.00
77070;PMS7003;65997;48.410;-4.570;2022-12-18T20:59:20;9.25;5.50;3.00
77070;PMS7003;65997;48.410;-4.570;2022-12-18T21:01:47;6.75;3.00;2.00